sensor_id;sensor_type;location;lat;lon;timestamp;pressure;altitude;pressure_sealevel;temperature;humidity
44734;BME280;30462;52.446;-1.930;2022-07-23T00:00:18;100482.918;;;;
44734;BME280;30462;52.446;-1.930;2022-07-23T00:01:18;100479.5469;;;;
44734;BME280;30462;52.446;-1.930;2022-07-23T00:02:18;100480.6094;;;;
44734;BME280;30462;52.446;-1.930;2022-07-23T00:03:18;100480.168;;;;
44734;BME280;30462;52.446;-1.930;2022-07-23T00:04:17;100481.1641;;;;
44734;BME280;30462;52.446;-1.930;2022-07-23T00:05:18;100479.3828;;;;
44734;BME280;30462;52.446;-1.930;2022-07-23T00:06:18;100480.2461;;;;
44734;BME280;30462;52.446;-1.930;2022-07-23T00:07:18;100480.2578;;;;
44734;BME280;30462;52.446;-1.930;2022-07-23T00:08:18;100475.5781;;;;
44734;BME280;30462;52.446;-1.930;2022-07-23T00:09:17;100477.8711;;;;
44734;BME280;30462;52.446;-1.930;2022-07-23T00:10:18;100475.6523;;;;
44734;BME280;30462;52.446;-1.930;2022-07-23T00:11:18;100475.4844;;;;
44734;BME280;30462;52.446;-1.930;2022-07-23T00:12:18;100476.6328;;;;
44734;BME280;30462;52.446;-1.930;2022-07-23T00:13:18;100476.1797;;;;
44734;BME280;30462;52.446;-1.930;2022-07-23T00:14:18;100475.4258;;;;
44734;BME280;30462;52.446;-1.930;2022-07-23T00:15:18;100474.3203;;;;
44734;BME280;30462;52.446;-1.930;2022-07-23T00:16:17;100471.9648;;;;
44734;BME280;30462;52.446;-1.930;2022-07-23T00:17:18;100472.6914;;;;
44734;BME280;30462;52.446;-1.930;2022-07-23T00:18:18;100471.6016;;;;
44734;BME280;30462;52.446;-1.930;2022-07-23T00:19:18;100476.9648;;;;
44734;BME280;30462;52.446;-1.930;2022-07-23T00:20:18;100475.5156;;;;
44734;BME280;30462;52.446;-1.930;2022-07-23T00:21:18;100472.6719;;;;
44734;BME280;30462;52.446;-1.930;2022-07-23T00:22:18;100475.8008;;;;
44734;BME280;30462;52.446;-1.930;2022-07-23T00:23:18;100473.4883;;;;
44734;BME280;30462;52.446;-1.930;2022-07-23T00:24:18;100473.4141;;;;
44734;BME280;30462;52.446;-1.930;2022-07-23T00:25:18;100472.7344;;;;
44734;BME280;30462;52.446;-1.930;2022-07-23T00:26:18;100473.3398;;;;
44734;BME280;30462;52.446;-1.930;2022-07-23T00:27:17;100474.8203;;;;
44734;BME280;30462;52.446;-1.930;2022-07-23T00:28:18;100475.8477;;;;
44734;BME280;30462;52.446;-1.930;2022-07-23T00:29:18;100474.6797;;;;
44734;BME280;30462;52.446;-1.930;2022-07-23T00:30:18;100472.6289;;;;
44734;BME280;30462;52.446;-1.930;2022-07-23T00:31:18;100470.2578;;;;
44734;BME280;30462;52.446;-1.930;2022-07-23T00:32:18;100469.9844;;;;
44734;BME280;30462;52.446;-1.930;2022-07-23T00:33:18;100468.3867;;;;
44734;BME280;30462;52.446;-1.930;2022-07-23T00:34:18;100467.793;;;;
44734;BME280;30462;52.446;-1.930;2022-07-23T00:35:19;100464.9688;;;;
44734;BME280;30462;52.446;-1.930;2022-07-23T00:36:18;100464.7266;;;;
44734;BME280;30462;52.446;-1.930;2022-07-23T00:37:18;100463.7305;;;;
44734;BME280;30462;52.446;-1.930;2022-07-23T00:38:18;100462.2539;;;;
44734;BME280;30462;52.446;-1.930;2022-07-23T00:39:18;100460.2461;;;;
44734;BME280;30462;52.446;-1.930;2022-07-23T00:40:18;100463.1289;;;;
44734;BME280;30462;52.446;-1.930;2022-07-23T00:41:17;100459.957;;;;
44734;BME280;30462;52.446;-1.930;2022-07-23T00:42:18;100458.3828;;;;
44734;BME280;30462;52.446;-1.930;2022-07-23T00:43:19;100459.6367;;;;
44734;BME280;30462;52.446;-1.930;2022-07-23T00:44:20;100454.668;;;;
44734;BME280;30462;52.446;-1.930;2022-07-23T00:45:18;100455.5117;;;;
44734;BME280;30462;52.446;-1.930;2022-07-23T00:46:19;100451.9336;;;;
44734;BME280;30462;52.446;-1.930;2022-07-23T00:47:18;100449.8359;;;;
44734;BME280;30462;52.446;-1.930;2022-07-23T00:48:18;100451.043;;;;
44734;BME280;30462;52.446;-1.930;2022-07-23T00:49:18;100450.4219;;;;
44734;BME280;30462;52.446;-1.930;2022-07-23T00:50:18;100450.6523;;;;
44734;BME280;30462;52.446;-1.930;2022-07-23T00:51:18;100444.7031;;;;
44734;BME280;30462;52.446;-1.930;2022-07-23T00:52:18;100447.4375;;;;
44734;BME280;30462;52.446;-1.930;2022-07-23T00:53:18;100446.3633;;;;
44734;BME280;30462;52.446;-1.930;2022-07-23T00:54:18;100446.3789;;;;
44734;BME280;30462;52.446;-1.930;2022-07-23T00:55:18;100445.9102;;;;
44734;BME280;30462;52.446;-1.930;2022-07-23T00:56:18;100446.5;;;;
44734;BME280;30462;52.446;-1.930;2022-07-23T00:57:18;100446.2422;;;;
44734;BME280;30462;52.446;-1.930;2022-07-23T00:58:18;100445.7539;;;;
44734;BME280;30462;52.446;-1.930;2022-07-23T00:59:18;100441.875;;;;
44734;BME280;30462;52.446;-1.930;2022-07-23T01:00:18;100441.5898;;;;
44734;BME280;30462;52.446;-1.930;2022-07-23T01:01:18;100439.5664;;;;
44734;BME280;30462;52.446;-1.930;2022-07-23T01:02:18;100441.4961;;;;
44734;BME280;30462;52.446;-1.930;2022-07-23T01:03:18;100439.25;;;;
44734;BME280;30462;52.446;-1.930;2022-07-23T01:04:17;100437.9375;;;;
44734;BME280;30462;52.446;-1.930;2022-07-23T01:05:18;100435.4258;;;;
44734;BME280;30462;52.446;-1.930;2022-07-23T01:06:18;100432.4063;;;;
44734;BME280;30462;52.446;-1.930;2022-07-23T01:07:18;100432.2109;;;;
44734;BME280;30462;52.446;-1.930;2022-07-23T01:08:18;100433.2656;;;;
44734;BME280;30462;52.446;-1.930;2022-07-23T01:09:18;100434.7773;;;;
44734;BME280;30462;52.446;-1.930;2022-07-23T01:10:18;100435.2148;;;;
44734;BME280;30462;52.446;-1.930;2022-07-23T01:11:18;100433.7656;;;;
44734;BME280;30462;52.446;-1.930;2022-07-23T01:12:18;100434.5078;;;;
44734;BME280;30462;52.446;-1.930;2022-07-23T01:13:17;100431.3984;;;;
44734;BME280;30462;52.446;-1.930;2022-07-23T01:14:18;100431.5469;;;;
44734;BME280;30462;52.446;-1.930;2022-07-23T01:15:17;100429.6133;;;;
44734;BME280;30462;52.446;-1.930;2022-07-23T01:16:18;100432.4805;;;;
44734;BME280;30462;52.446;-1.930;2022-07-23T01:17:18;100429.4023;;;;
44734;BME280;30462;52.446;-1.930;2022-07-23T01:18:18;100429.5234;;;;
44734;BME280;30462;52.446;-1.930;2022-07-23T01:19:18;100430.957;;;;
44734;BME280;30462;52.446;-1.930;2022-07-23T01:20:18;100430.8398;;;;
44734;BME280;30462;52.446;-1.930;2022-07-23T01:21:18;100431.8359;;;;
44734;BME280;30462;52.446;-1.930;2022-07-23T01:22:18;100427.3008;;;;
44734;BME280;30462;52.446;-1.930;2022-07-23T01:23:19;100429.0391;;;;
44734;BME280;30462;52.446;-1.930;2022-07-23T01:24:20;100425.457;;;;
44734;BME280;30462;52.446;-1.930;2022-07-23T01:25:18;100426.8281;;;;
44734;BME280;30462;52.446;-1.930;2022-07-23T01:26:18;100423.2344;;;;
44734;BME280;30462;52.446;-1.930;2022-07-23T01:27:18;100425.5547;;;;
44734;BME280;30462;52.446;-1.930;2022-07-23T01:28:18;100426.1406;;;;
44734;BME280;30462;52.446;-1.930;2022-07-23T01:29:18;100424.4961;;;;
44734;BME280;30462;52.446;-1.930;2022-07-23T01:30:18;100427.4531;;;;
44734;BME280;30462;52.446;-1.930;2022-07-23T01:31:17;100427.125;;;;
44734;BME280;30462;52.446;-1.930;2022-07-23T01:32:18;100425.8086;;;;
44734;BME280;30462;52.446;-1.930;2022-07-23T01:33:18;100427.5273;;;;
44734;BME280;30462;52.446;-1.930;2022-07-23T01:34:18;100428.875;;;;
44734;BME280;30462;52.446;-1.930;2022-07-23T01:35:18;100428.793;;;;
44734;BME280;30462;52.446;-1.930;2022-07-23T01:36:18;100432.3633;;;;
44734;BME280;30462;52.446;-1.930;2022-07-23T01:37:18;100431.7969;;;;
44734;BME280;30462;52.446;-1.930;2022-07-23T01:38:18;100428.8047;;;;
44734;BME280;30462;52.446;-1.930;2022-07-23T01:39:18;100428.0508;;;;
44734;BME280;30462;52.446;-1.930;2022-07-23T01:40:18;100430.2969;;;;
44734;BME280;30462;52.446;-1.930;2022-07-23T01:41:18;100429.5898;;;;
44734;BME280;30462;52.446;-1.930;2022-07-23T01:42:18;100431.9414;;;;
44734;BME280;30462;52.446;-1.930;2022-07-23T01:43:18;100432.7695;;;;
44734;BME280;30462;52.446;-1.930;2022-07-23T01:44:18;100430.0977;;;;
44734;BME280;30462;52.446;-1.930;2022-07-23T01:45:19;100433.7305;;;;
44734;BME280;30462;52.446;-1.930;2022-07-23T01:46:18;100430.4609;;;;
44734;BME280;30462;52.446;-1.930;2022-07-23T01:47:18;100429.7891;;;;
44734;BME280;30462;52.446;-1.930;2022-07-23T01:48:18;100429.082;;;;
44734;BME280;30462;52.446;-1.930;2022-07-23T01:49:19;100427.6641;;;;
44734;BME280;30462;52.446;-1.930;2022-07-23T01:50:18;100431.0586;;;;
44734;BME280;30462;52.446;-1.930;2022-07-23T01:51:18;100433.3516;;;;
44734;BME280;30462;52.446;-1.930;2022-07-23T01:52:18;100435.6055;;;;
44734;BME280;30462;52.446;-1.930;2022-07-23T01:53:17;100436.1992;;;;
44734;BME280;30462;52.446;-1.930;2022-07-23T01:54:18;100436.1992;;;;
44734;BME280;30462;52.446;-1.930;2022-07-23T01:55:18;100435.9727;;;;
44734;BME280;30462;52.446;-1.930;2022-07-23T01:56:18;100438.5234;;;;
44734;BME280;30462;52.446;-1.930;2022-07-23T01:57:18;100439.4883;;;;
44734;BME280;30462;52.446;-1.930;2022-07-23T01:58:18;100439.7109;;;;
44734;BME280;30462;52.446;-1.930;2022-07-23T01:59:18;100443.8555;;;;
44734;BME280;30462;52.446;-1.930;2022-07-23T02:00:18;100439.1445;;;;
44734;BME280;30462;52.446;-1.930;2022-07-23T02:01:18;100442.3438;;;;
44734;BME280;30462;52.446;-1.930;2022-07-23T02:02:18;100441.9023;;;;
44734;BME280;30462;52.446;-1.930;2022-07-23T02:03:18;100442.4727;;;;
44734;BME280;30462;52.446;-1.930;2022-07-23T02:04:18;100439.1445;;;;
44734;BME280;30462;52.446;-1.930;2022-07-23T02:05:18;100444.1563;;;;
44734;BME280;30462;52.446;-1.930;2022-07-23T02:06:18;100447.4727;;;;
44734;BME280;30462;52.446;-1.930;2022-07-23T02:07:18;100444.457;;;;
44734;BME280;30462;52.446;-1.930;2022-07-23T02:08:18;100448.7891;;;;
44734;BME280;30462;52.446;-1.930;2022-07-23T02:09:18;100444.0977;;;;
44734;BME280;30462;52.446;-1.930;2022-07-23T02:10:18;100445.8633;;;;
44734;BME280;30462;52.446;-1.930;2022-07-23T02:11:18;100442.0742;;;;
44734;BME280;30462;52.446;-1.930;2022-07-23T02:12:18;100442.8633;;;;
44734;BME280;30462;52.446;-1.930;2022-07-23T02:13:18;100445.8086;;;;
44734;BME280;30462;52.446;-1.930;2022-07-23T02:14:18;100445.9219;;;;
44734;BME280;30462;52.446;-1.930;2022-07-23T02:15:18;100448.5039;;;;
44734;BME280;30462;52.446;-1.930;2022-07-23T02:16:18;100449.2969;;;;
44734;BME280;30462;52.446;-1.930;2022-07-23T02:17:17;100453.0938;;;;
44734;BME280;30462;52.446;-1.930;2022-07-23T02:18:18;100454.7695;;;;
44734;BME280;30462;52.446;-1.930;2022-07-23T02:19:18;100454.3828;;;;
44734;BME280;30462;52.446;-1.930;2022-07-23T02:20:18;100455.8555;;;;
44734;BME280;30462;52.446;-1.930;2022-07-23T02:21:18;100456.1289;;;;
44734;BME280;30462;52.446;-1.930;2022-07-23T02:22:18;100456.3516;;;;
44734;BME280;30462;52.446;-1.930;2022-07-23T02:23:18;100453.7109;;;;
44734;BME280;30462;52.446;-1.930;2022-07-23T02:24:18;100452.125;;;;
44734;BME280;30462;52.446;-1.930;2022-07-23T02:25:18;100451.0586;;;;
44734;BME280;30462;52.446;-1.930;2022-07-23T02:26:18;100447.7539;;;;
44734;BME280;30462;52.446;-1.930;2022-07-23T02:27:18;100443.457;;;;
44734;BME280;30462;52.446;-1.930;2022-07-23T02:28:18;100442.7344;;;;
44734;BME280;30462;52.446;-1.930;2022-07-23T02:29:18;100440.5781;;;;
44734;BME280;30462;52.446;-1.930;2022-07-23T02:30:18;100436.8008;;;;
44734;BME280;30462;52.446;-1.930;2022-07-23T02:31:18;100436.1758;;;;
44734;BME280;30462;52.446;-1.930;2022-07-23T02:32:18;100433.6641;;;;
44734;BME280;30462;52.446;-1.930;2022-07-23T02:33:18;100435.3203;;;;
44734;BME280;30462;52.446;-1.930;2022-07-23T02:34:18;100435.8594;;;;
44734;BME280;30462;52.446;-1.930;2022-07-23T02:35:18;100432.5039;;;;
44734;BME280;30462;52.446;-1.930;2022-07-23T02:36:18;100432.4844;;;;
44734;BME280;30462;52.446;-1.930;2022-07-23T02:37:18;100431.6641;;;;
44734;BME280;30462;52.446;-1.930;2022-07-23T02:38:18;100434.8867;;;;
44734;BME280;30462;52.446;-1.930;2022-07-23T02:39:18;100433.1211;;;;
44734;BME280;30462;52.446;-1.930;2022-07-23T02:40:18;100435.2031;;;;
44734;BME280;30462;52.446;-1.930;2022-07-23T02:41:18;100438.4961;;;;
44734;BME280;30462;52.446;-1.930;2022-07-23T02:42:18;100437.4063;;;;
44734;BME280;30462;52.446;-1.930;2022-07-23T02:43:18;100440.6367;;;;
44734;BME280;30462;52.446;-1.930;2022-07-23T02:44:18;100446.2227;;;;
44734;BME280;30462;52.446;-1.930;2022-07-23T02:45:18;100448.8711;;;;
44734;BME280;30462;52.446;-1.930;2022-07-23T02:46:17;100451.4688;;;;
44734;BME280;30462;52.446;-1.930;2022-07-23T02:47:18;100456.8945;;;;
44734;BME280;30462;52.446;-1.930;2022-07-23T02:48:18;100458.2227;;;;
44734;BME280;30462;52.446;-1.930;2022-07-23T02:49:18;100459.1406;;;;
44734;BME280;30462;52.446;-1.930;2022-07-23T02:50:18;100459.6914;;;;
44734;BME280;30462;52.446;-1.930;2022-07-23T02:51:18;100460.6797;;;;
44734;BME280;30462;52.446;-1.930;2022-07-23T02:52:18;100459.3672;;;;
44734;BME280;30462;52.446;-1.930;2022-07-23T02:53:18;100456.5469;;;;
44734;BME280;30462;52.446;-1.930;2022-07-23T02:54:18;100457.6094;;;;
44734;BME280;30462;52.446;-1.930;2022-07-23T02:55:18;100459.0547;;;;
44734;BME280;30462;52.446;-1.930;2022-07-23T02:56:18;100456.4219;;;;
44734;BME280;30462;52.446;-1.930;2022-07-23T02:57:18;100456.1289;;;;
44734;BME280;30462;52.446;-1.930;2022-07-23T02:58:18;100455.1602;;;;
44734;BME280;30462;52.446;-1.930;2022-07-23T02:59:18;100453.9922;;;;
44734;BME280;30462;52.446;-1.930;2022-07-23T03:00:17;100454.8359;;;;
44734;BME280;30462;52.446;-1.930;2022-07-23T03:01:18;100454.6016;;;;
44734;BME280;30462;52.446;-1.930;2022-07-23T03:02:18;100453.5;;;;
44734;BME280;30462;52.446;-1.930;2022-07-23T03:03:18;100455.4922;;;;
44734;BME280;30462;52.446;-1.930;2022-07-23T03:04:18;100452.6953;;;;
44734;BME280;30462;52.446;-1.930;2022-07-23T03:05:17;100456.4609;;;;
44734;BME280;30462;52.446;-1.930;2022-07-23T03:06:19;100458.6523;;;;
44734;BME280;30462;52.446;-1.930;2022-07-23T03:07:18;100458.0313;;;;
44734;BME280;30462;52.446;-1.930;2022-07-23T03:08:18;100456.7344;;;;
44734;BME280;30462;52.446;-1.930;2022-07-23T03:09:18;100457.7148;;;;
44734;BME280;30462;52.446;-1.930;2022-07-23T03:10:18;100460.8125;;;;
44734;BME280;30462;52.446;-1.930;2022-07-23T03:11:18;100458.3906;;;;
44734;BME280;30462;52.446;-1.930;2022-07-23T03:12:18;100459.7305;;;;
44734;BME280;30462;52.446;-1.930;2022-07-23T03:13:18;100457.1406;;;;
44734;BME280;30462;52.446;-1.930;2022-07-23T03:14:18;100458.8438;;;;
44734;BME280;30462;52.446;-1.930;2022-07-23T03:15:18;100457.3945;;;;
44734;BME280;30462;52.446;-1.930;2022-07-23T03:16:17;100457.6836;;;;
44734;BME280;30462;52.446;-1.930;2022-07-23T03:17:18;100458.6172;;;;
44734;BME280;30462;52.446;-1.930;2022-07-23T03:18:18;100454.6367;;;;
44734;BME280;30462;52.446;-1.930;2022-07-23T03:19:18;100453.6602;;;;
44734;BME280;30462;52.446;-1.930;2022-07-23T03:20:18;100454.9922;;;;
44734;BME280;30462;52.446;-1.930;2022-07-23T03:21:17;100453.4336;;;;
44734;BME280;30462;52.446;-1.930;2022-07-23T03:22:18;100455.75;;;;
44734;BME280;30462;52.446;-1.930;2022-07-23T03:23:18;100455.5977;;;;
44734;BME280;30462;52.446;-1.930;2022-07-23T03:24:18;100454.7148;;;;
44734;BME280;30462;52.446;-1.930;2022-07-23T03:25:17;100457.0664;;;;
44734;BME280;30462;52.446;-1.930;2022-07-23T03:26:18;100456.0938;;;;
44734;BME280;30462;52.446;-1.930;2022-07-23T03:27:18;100454.543;;;;
44734;BME280;30462;52.446;-1.930;2022-07-23T03:28:18;100454.4883;;;;
44734;BME280;30462;52.446;-1.930;2022-07-23T03:29:18;100456.1289;;;;
44734;BME280;30462;52.446;-1.930;2022-07-23T03:30:18;100453.5547;;;;
44734;BME280;30462;52.446;-1.930;2022-07-23T03:31:18;100452.6055;;;;
44734;BME280;30462;52.446;-1.930;2022-07-23T03:32:18;100454.7734;;;;
44734;BME280;30462;52.446;-1.930;2022-07-23T03:33:18;100455.418;;;;
44734;BME280;30462;52.446;-1.930;2022-07-23T03:34:18;100455.6406;;;;
44734;BME280;30462;52.446;-1.930;2022-07-23T03:35:18;100457.7422;;;;
44734;BME280;30462;52.446;-1.930;2022-07-23T03:36:18;100456.8984;;;;
44734;BME280;30462;52.446;-1.930;2022-07-23T03:37:18;100452.2891;;;;
44734;BME280;30462;52.446;-1.930;2022-07-23T03:38:18;100452.3477;;;;
44734;BME280;30462;52.446;-1.930;2022-07-23T03:39:18;100449.6406;;;;
44734;BME280;30462;52.446;-1.930;2022-07-23T03:40:18;100445.0586;;;;
44734;BME280;30462;52.446;-1.930;2022-07-23T03:41:19;100448.2109;;;;
44734;BME280;30462;52.446;-1.930;2022-07-23T03:42:18;100444.4922;;;;
44734;BME280;30462;52.446;-1.930;2022-07-23T03:43:18;100445.7188;;;;
44734;BME280;30462;52.446;-1.930;2022-07-23T03:44:18;100446.3867;;;;
44734;BME280;30462;52.446;-1.930;2022-07-23T03:45:18;100446.9375;;;;
44734;BME280;30462;52.446;-1.930;2022-07-23T03:46:18;100444.7148;;;;
44734;BME280;30462;52.446;-1.930;2022-07-23T03:47:18;100444.2266;;;;
44734;BME280;30462;52.446;-1.930;2022-07-23T03:48:18;100441.9844;;;;
44734;BME280;30462;52.446;-1.930;2022-07-23T03:49:18;100438.6758;;;;
44734;BME280;30462;52.446;-1.930;2022-07-23T03:50:18;100439.5273;;;;
44734;BME280;30462;52.446;-1.930;2022-07-23T03:51:18;100442.8438;;;;
44734;BME280;30462;52.446;-1.930;2022-07-23T03:52:18;100442.3086;;;;
44734;BME280;30462;52.446;-1.930;2022-07-23T03:53:18;100444.5508;;;;
44734;BME280;30462;52.446;-1.930;2022-07-23T03:54:18;100444.9375;;;;
44734;BME280;30462;52.446;-1.930;2022-07-23T03:55:17;100448.1484;;;;
44734;BME280;30462;52.446;-1.930;2022-07-23T03:56:18;100449.418;;;;
44734;BME280;30462;52.446;-1.930;2022-07-23T03:57:18;100453.168;;;;
44734;BME280;30462;52.446;-1.930;2022-07-23T03:58:17;100453.6133;;;;
44734;BME280;30462;52.446;-1.930;2022-07-23T03:59:18;100450.8438;;;;
44734;BME280;30462;52.446;-1.930;2022-07-23T04:00:18;100453.5625;;;;
44734;BME280;30462;52.446;-1.930;2022-07-23T04:01:18;100451.5156;;;;
44734;BME280;30462;52.446;-1.930;2022-07-23T04:02:18;100449.2734;;;;
44734;BME280;30462;52.446;-1.930;2022-07-23T04:03:18;100449.1914;;;;
44734;BME280;30462;52.446;-1.930;2022-07-23T04:04:18;100445.8477;;;;
44734;BME280;30462;52.446;-1.930;2022-07-23T04:05:18;100442.4766;;;;
44734;BME280;30462;52.446;-1.930;2022-07-23T04:06:18;100438.7695;;;;
44734;BME280;30462;52.446;-1.930;2022-07-23T04:07:18;100438.4063;;;;
44734;BME280;30462;52.446;-1.930;2022-07-23T04:08:18;100437.4531;;;;
44734;BME280;30462;52.446;-1.930;2022-07-23T04:09:18;100437.7383;;;;
44734;BME280;30462;52.446;-1.930;2022-07-23T04:10:18;100438.8438;;;;
44734;BME280;30462;52.446;-1.930;2022-07-23T04:11:18;100442.3281;;;;
44734;BME280;30462;52.446;-1.930;2022-07-23T04:12:18;100441.0938;;;;
44734;BME280;30462;52.446;-1.930;2022-07-23T04:13:18;100439.1602;;;;
44734;BME280;30462;52.446;-1.930;2022-07-23T04:14:18;100439.9883;;;;
44734;BME280;30462;52.446;-1.930;2022-07-23T04:15:17;100440.8164;;;;
44734;BME280;30462;52.446;-1.930;2022-07-23T04:16:18;100438.293;;;;
44734;BME280;30462;52.446;-1.930;2022-07-23T04:17:18;100438.6289;;;;
44734;BME280;30462;52.446;-1.930;2022-07-23T04:18:17;100437.2813;;;;
44734;BME280;30462;52.446;-1.930;2022-07-23T04:19:18;100434.8711;;;;
44734;BME280;30462;52.446;-1.930;2022-07-23T04:20:18;100434.418;;;;
44734;BME280;30462;52.446;-1.930;2022-07-23T04:21:18;100429.5234;;;;
44734;BME280;30462;52.446;-1.930;2022-07-23T04:22:18;100428.7891;;;;
44734;BME280;30462;52.446;-1.930;2022-07-23T04:23:18;100430.7734;;;;
44734;BME280;30462;52.446;-1.930;2022-07-23T04:24:18;100431.4883;;;;
44734;BME280;30462;52.446;-1.930;2022-07-23T04:25:18;100432.8281;;;;
44734;BME280;30462;52.446;-1.930;2022-07-23T04:26:18;100434.3047;;;;
44734;BME280;30462;52.446;-1.930;2022-07-23T04:27:18;100433.3281;;;;
44734;BME280;30462;52.446;-1.930;2022-07-23T04:28:18;100429.5117;;;;
44734;BME280;30462;52.446;-1.930;2022-07-23T04:29:18;100432.4297;;;;
44734;BME280;30462;52.446;-1.930;2022-07-23T04:30:17;100431.5391;;;;
44734;BME280;30462;52.446;-1.930;2022-07-23T04:31:18;100432.1563;;;;
44734;BME280;30462;52.446;-1.930;2022-07-23T04:32:18;100431.8242;;;;
44734;BME280;30462;52.446;-1.930;2022-07-23T04:33:18;100430.4688;;;;
44734;BME280;30462;52.446;-1.930;2022-07-23T04:34:18;100429.0586;;;;
44734;BME280;30462;52.446;-1.930;2022-07-23T04:35:18;100433.1992;;;;
44734;BME280;30462;52.446;-1.930;2022-07-23T04:36:18;100430.6758;;;;
44734;BME280;30462;52.446;-1.930;2022-07-23T04:37:18;100434.0977;;;;
44734;BME280;30462;52.446;-1.930;2022-07-23T04:38:18;100431.543;;;;
44734;BME280;30462;52.446;-1.930;2022-07-23T04:39:18;100431.0352;;;;
44734;BME280;30462;52.446;-1.930;2022-07-23T04:40:18;100426.4844;;;;
44734;BME280;30462;52.446;-1.930;2022-07-23T04:41:18;100425.832;;;;
44734;BME280;30462;52.446;-1.930;2022-07-23T04:42:18;100425.4492;;;;
44734;BME280;30462;52.446;-1.930;2022-07-23T04:43:18;100420.9883;;;;
44734;BME280;30462;52.446;-1.930;2022-07-23T04:44:18;100421.4531;;;;
44734;BME280;30462;52.446;-1.930;2022-07-23T04:45:18;100424.2695;;;;
44734;BME280;30462;52.446;-1.930;2022-07-23T04:46:18;100426.0313;;;;
44734;BME280;30462;52.446;-1.930;2022-07-23T04:47:18;100427.6914;;;;
44734;BME280;30462;52.446;-1.930;2022-07-23T04:48:17;100435.9609;;;;
44734;BME280;30462;52.446;-1.930;2022-07-23T04:49:18;100433.8047;;;;
44734;BME280;30462;52.446;-1.930;2022-07-23T04:50:18;100434.707;;;;
44734;BME280;30462;52.446;-1.930;2022-07-23T04:51:18;100433.7539;;;;
44734;BME280;30462;52.446;-1.930;2022-07-23T04:52:18;100435.207;;;;
44734;BME280;30462;52.446;-1.930;2022-07-23T04:53:18;100434.8203;;;;
44734;BME280;30462;52.446;-1.930;2022-07-23T04:54:18;100434.0273;;;;
44734;BME280;30462;52.446;-1.930;2022-07-23T04:55:18;100436.7617;;;;
44734;BME280;30462;52.446;-1.930;2022-07-23T04:56:18;100438.793;;;;
44734;BME280;30462;52.446;-1.930;2022-07-23T04:57:18;100443.7031;;;;
44734;BME280;30462;52.446;-1.930;2022-07-23T04:58:18;100446.8203;;;;
44734;BME280;30462;52.446;-1.930;2022-07-23T04:59:18;100443.1836;;;;
44734;BME280;30462;52.446;-1.930;2022-07-23T05:00:17;100444.9648;;;;
44734;BME280;30462;52.446;-1.930;2022-07-23T05:01:18;100444.8516;;;;
44734;BME280;30462;52.446;-1.930;2022-07-23T05:02:18;100451.2578;;;;
44734;BME280;30462;52.446;-1.930;2022-07-23T05:03:18;100449.9688;;;;
44734;BME280;30462;52.446;-1.930;2022-07-23T05:04:18;100450.7344;;;;
44734;BME280;30462;52.446;-1.930;2022-07-23T05:05:18;100453.0039;;;;
44734;BME280;30462;52.446;-1.930;2022-07-23T05:06:18;100452.2852;;;;
44734;BME280;30462;52.446;-1.930;2022-07-23T05:07:18;100448.9688;;;;
44734;BME280;30462;52.446;-1.930;2022-07-23T05:08:18;100450.0703;;;;
44734;BME280;30462;52.446;-1.930;2022-07-23T05:09:18;100451.6992;;;;
44734;BME280;30462;52.446;-1.930;2022-07-23T05:10:18;100447.6055;;;;
44734;BME280;30462;52.446;-1.930;2022-07-23T05:11:18;100456.2734;;;;
44734;BME280;30462;52.446;-1.930;2022-07-23T05:12:18;100455.6055;;;;
44734;BME280;30462;52.446;-1.930;2022-07-23T05:13:18;100450.4336;;;;
44734;BME280;30462;52.446;-1.930;2022-07-23T05:14:18;100454.3789;;;;
44734;BME280;30462;52.446;-1.930;2022-07-23T05:15:18;100458.4063;;;;
44734;BME280;30462;52.446;-1.930;2022-07-23T05:16:18;100462.5352;;;;
44734;BME280;30462;52.446;-1.930;2022-07-23T05:17:18;100462.8789;;;;
44734;BME280;30462;52.446;-1.930;2022-07-23T05:18:18;100459.1445;;;;
44734;BME280;30462;52.446;-1.930;2022-07-23T05:19:18;100459.7227;;;;
44734;BME280;30462;52.446;-1.930;2022-07-23T05:20:18;100454.1758;;;;
44734;BME280;30462;52.446;-1.930;2022-07-23T05:21:18;100458.0742;;;;
44734;BME280;30462;52.446;-1.930;2022-07-23T05:22:18;100455.0977;;;;
44734;BME280;30462;52.446;-1.930;2022-07-23T05:23:18;100457.8125;;;;
44734;BME280;30462;52.446;-1.930;2022-07-23T05:24:18;100457.9141;;;;
44734;BME280;30462;52.446;-1.930;2022-07-23T05:25:18;100459.832;;;;
44734;BME280;30462;52.446;-1.930;2022-07-23T05:26:18;100459.1289;;;;
44734;BME280;30462;52.446;-1.930;2022-07-23T05:27:18;100457.1953;;;;
44734;BME280;30462;52.446;-1.930;2022-07-23T05:28:18;100459.4727;;;;
44734;BME280;30462;52.446;-1.930;2022-07-23T05:29:18;100460.6602;;;;
44734;BME280;30462;52.446;-1.930;2022-07-23T05:30:18;100457.0352;;;;
44734;BME280;30462;52.446;-1.930;2022-07-23T05:31:18;100457.4648;;;;
44734;BME280;30462;52.446;-1.930;2022-07-23T05:32:18;100458.0391;;;;
44734;BME280;30462;52.446;-1.930;2022-07-23T05:33:18;100460.0156;;;;
44734;BME280;30462;52.446;-1.930;2022-07-23T05:34:18;100455.3789;;;;
44734;BME280;30462;52.446;-1.930;2022-07-23T05:35:18;100457.4141;;;;
44734;BME280;30462;52.446;-1.930;2022-07-23T05:36:18;100456.5391;;;;
44734;BME280;30462;52.446;-1.930;2022-07-23T05:37:17;100457.9609;;;;
44734;BME280;30462;52.446;-1.930;2022-07-23T05:38:18;100460.2852;;;;
44734;BME280;30462;52.446;-1.930;2022-07-23T05:39:18;100459.1133;;;;
44734;BME280;30462;52.446;-1.930;2022-07-23T05:40:18;100459.1289;;;;
44734;BME280;30462;52.446;-1.930;2022-07-23T05:41:18;100461.4609;;;;
44734;BME280;30462;52.446;-1.930;2022-07-23T05:42:18;100465.5898;;;;
44734;BME280;30462;52.446;-1.930;2022-07-23T05:43:18;100463.3125;;;;
44734;BME280;30462;52.446;-1.930;2022-07-23T05:44:18;100461.0469;;;;
44734;BME280;30462;52.446;-1.930;2022-07-23T05:45:18;100462.0469;;;;